METAR Data
IDs: Format: Raw Decoded Include TAF

Data at: 1048 UTC 18 Jan 2022

K06D 181035Z AUTO 00000KT M1/4SM FZFG OVC002 M08/M08 A2936 RMK AO2
K06D 181015Z AUTO 13003KT 1/4SM FZFG OVC002 M08/M08 A2936 RMK AO2
K06D 180955Z AUTO 16006KT 1/4SM FZFG OVC002 M08/M08 A2937 RMK AO2
K06D 180935Z AUTO 15011KT 1/2SM FZFG OVC002 M08/M08 A2936 RMK AO2
K06D 180915Z AUTO 15007KT 1/2SM BR OVC002 M08/M08 A2939 RMK AO2
K06D 180855Z AUTO 15005KT 3/4SM BR OVC002 M08/M08 A2941 RMK AO2
K06D 180835Z AUTO 15011KT 2SM BR OVC003 M08/M08 A2940 RMK AO2
K06D 180815Z AUTO 15007KT 2SM BR OVC003 M09/M09 A2942 RMK AO2
K06D 180755Z AUTO 14008KT 3SM BR OVC003 M09/M09 A2943 RMK AO2
K06D 180735Z AUTO 15011KT 3SM BR OVC003 M09/M09 A2944 RMK AO2
K06D 180715Z AUTO 15010KT 2SM BR OVC003 M09/M09 A2945 RMK AO2
K06D 180655Z AUTO 15012KT 1 1/2SM BR OVC003 M09/M09 A2946 RMK AO2
K06D 180635Z AUTO 15012KT 3SM BR OVC003 M09/M09 A2948 RMK AO2
K06D 180615Z AUTO 14011KT 3SM BR OVC003 M10/M09 A2950 RMK AO2
K06D 180555Z AUTO 14010KT 8SM OVC003 M10/M10 A2953 RMK AO2
K06D 180535Z AUTO 14011KT 7SM OVC003 M10/M09 A2954 RMK AO2
K06D 180515Z AUTO 14010KT 9SM OVC004 M09/M09 A2955 RMK AO2
K06D 180455Z AUTO 14011KT 8SM OVC005 M10/M09 A2956 RMK AO2
K06D 180435Z AUTO 15012KT 10SM OVC005 M10/M10 A2958 RMK AO2
K06D 180415Z AUTO 14009KT 10SM SCT006 OVC012 M10/M10 A2959 RMK AO2
K06D 180355Z AUTO 14009KT 10SM OVC012 M10/M10 A2961 RMK AO2
K06D 180335Z AUTO 14010KT 10SM OVC012 M10/M10 A2961 RMK AO2
K06D 180315Z AUTO 14010KT 10SM -SN SCT002 BKN012 OVC031 M10/M10 A2964 RMK AO2
K06D 180255Z AUTO 13010KT 1 1/2SM -SN OVC002 M10/M10 A2964 RMK AO2
K06D 180235Z AUTO 13012KT 3SM -SN BKN003 BKN016 OVC027 M10/M10 A2965 RMK AO2
K06D 180215Z AUTO 12010KT 2SM -SN SCT002 BKN014 OVC027 M10/M10 A2966 RMK AO2
K06D 180155Z AUTO 12010KT 8SM -SN BKN014 OVC029 M10/M10 A2967 RMK AO2
K06D 180135Z AUTO 12008KT 10SM FEW014 BKN030 OVC038 M10/M10 A2969 RMK AO2
K06D 180115Z AUTO 10007KT 10SM SCT037 BKN060 OVC070 M10/M10 A2970 RMK AO2
K06D 180055Z AUTO 11008KT 10SM FEW037 OVC075 M10/M10 A2969 RMK AO2
K06D 180035Z AUTO 12009KT 10SM BKN036 BKN060 OVC075 M10/M10 A2969 RMK AO2
K06D 180015Z AUTO 10008KT 10SM OVC036 M10/M10 A2970 RMK AO2
K06D 172355Z AUTO 10010KT 10SM BKN014 OVC036 M10/M10 A2971 RMK AO2
K06D 172335Z AUTO 10009KT 10SM BKN014 BKN036 OVC060 M10/M10 A2972 RMK AO2
K06D 172315Z AUTO 10010KT 10SM FEW014 OVC060 M10/M10 A2973 RMK AO2
K06D 172255Z AUTO 10008KT 10SM OVC065 M10/M10 A2973 RMK AO2
K06D 172235Z AUTO 09007KT 10SM FEW007 SCT013 OVC065 M10/M10 A2974 RMK AO2
K06D 172215Z AUTO 09009KT 10SM SCT006 BKN014 OVC065 M09/M09 A2973 RMK AO2
K06D 172155Z AUTO 09010KT 10SM OVC006 M09/M09 A2974 RMK AO2
K06D 172135Z AUTO 09009KT 10SM OVC006 M09/M09 A2975 RMK AO2
K06D 172115Z AUTO 09009KT 10SM OVC007 M09/M09 A2975 RMK AO2
K06D 172055Z AUTO 08010KT 10SM SCT007 OVC013 M08/M08 A2976 RMK AO2
K06D 172035Z AUTO 09009KT 10SM FEW007 OVC013 M08/M08 A2976 RMK AO2
K06D 172015Z AUTO 09010KT 10SM BKN007 OVC013 M08/M08 A2976 RMK AO2
K06D 171955Z AUTO 09010KT 10SM BKN007 OVC013 M08/M08 A2975 RMK AO2
K06D 171935Z AUTO 09010KT 10SM BKN007 OVC015 M08/M08 A2977 RMK AO2
K06D 171915Z AUTO 07011KT 10SM OVC014 M08/M08 A2976 RMK AO2
K06D 171855Z AUTO 07011KT 10SM OVC015 M08/M08 A2979 RMK AO2
K06D 171835Z AUTO 09008KT 10SM FEW005 OVC015 M08/M08 A2978 RMK AO2
K06D 171815Z AUTO 08009KT 10SM OVC004 M07/M07 A2978 RMK AO2
K06D 171755Z AUTO 08009KT 10SM OVC004 M07/M07 A2979 RMK AO2
K06D 171735Z AUTO 07010KT 10SM OVC005 M07/M07 A2979 RMK AO2
K06D 171715Z AUTO 07011KT 10SM OVC006 M07/M07 A2980 RMK AO2
K06D 171655Z AUTO 06011KT 10SM OVC005 M07/M07 A2979 RMK AO2
K06D 171635Z AUTO 06010KT 10SM OVC004 M07/M07 A2979 RMK AO2
K06D 171615Z AUTO 05011KT 3SM BR OVC003 M06/M06 A2977 RMK AO2
K06D 171555Z AUTO 07010KT 9SM OVC003 M06/M06 A2977 RMK AO2
K06D 171535Z AUTO 05009KT 10SM OVC003 M06/M06 A2976 RMK AO2
K06D 171515Z AUTO 05009KT 10SM OVC004 M06/M06 A2976 RMK AO2
K06D 171455Z AUTO 04008KT 10SM OVC005 M06/M05 A2976 RMK AO2
K06D 171435Z AUTO 04006KT 10SM BKN006 OVC011 M05/M05 A2975 RMK AO2
K06D 171415Z AUTO 02008KT 10SM BKN006 OVC012 M05/M05 A2975 RMK AO2
K06D 171355Z AUTO 36008KT 10SM OVC011 M05/M05 A2976 RMK AO2
K06D 171335Z AUTO 36008KT 10SM BKN011 OVC020 M05/M05 A2976 RMK AO2
K06D 171315Z AUTO 36008KT 10SM FEW008 BKN020 OVC065 M05/M05 A2977 RMK AO2
K06D 171255Z AUTO 36007KT 10SM FEW021 SCT065 OVC090 M05/M05 A2977 RMK AO2
K06D 171235Z AUTO 36007KT 10SM BKN080 OVC090 M05/M05 A2976 RMK AO2
K06D 171215Z AUTO 34007KT 10SM SCT034 BKN040 OVC080 M05/M05 A2976 RMK AO2
K06D 171155Z AUTO 34007KT 10SM BKN035 OVC075 M04/M04 A2975 RMK AO2
K06D 171135Z AUTO 34009KT 10SM FEW025 SCT043 OVC075 M04/M04 A2975 RMK AO2
K06D 171115Z AUTO 35010KT 10SM SCT042 BKN050 OVC075 M04/M04 A2975 RMK AO2
K06D 171055Z AUTO 35008KT 10SM SCT049 BKN060 OVC075 M04/M04 A2975 RMK AO2
K06D 171035Z AUTO 32008KT 10SM BKN049 OVC060 M03/M03 A2974 RMK AO2
K06D 171015Z AUTO 34006KT 10SM OVC060 M03/M03 A2975 RMK AO2
K06D 170955Z AUTO 29004KT 10SM OVC060 M03/M03 A2974 RMK AO2
K06D 170935Z AUTO 00000KT 10SM OVC060 M03/M04 A2975 RMK AO2
K06D 170915Z AUTO 00000KT 10SM SCT060 BKN100 OVC120 M03/M04 A2975 RMK AO2
K06D 170855Z AUTO 29004KT 10SM SCT095 BKN120 M04/M04 A2976 RMK AO2
K06D 170835Z AUTO 31005KT 10SM SCT120 M04/M04 A2976 RMK AO2
K06D 170815Z AUTO 32007KT 10SM CLR M04/M04 A2977 RMK AO2
K06D 170755Z AUTO 29007KT 10SM CLR M03/M04 A2977 RMK AO2
K06D 170735Z AUTO 27009KT 10SM CLR M04/M04 A2977 RMK AO2
K06D 170715Z AUTO 27011KT 10SM CLR M04/M04 A2978 RMK AO2
K06D 170655Z AUTO 27013KT 10SM CLR M05/M05 A2978 RMK AO2
K06D 170635Z AUTO 25012KT 10SM CLR M05/M05 A2978 RMK AO2
K06D 170615Z AUTO 25014KT 10SM CLR M05/M05 A2978 RMK AO2
K06D 170555Z AUTO 24014KT 10SM CLR M05/M05 A2978 RMK AO2
K06D 170535Z AUTO 24011KT 10SM CLR M05/M05 A2979 RMK AO2
K06D 170515Z AUTO 24013G20KT 10SM SCT036 M04/M04 A2979 RMK AO2
K06D 170455Z AUTO 23012KT 10SM OVC035 M04/M04 A2980 RMK AO2
K06D 170435Z AUTO 23013KT 10SM OVC032 M02/M02 A2980 RMK AO2
K06D 170415Z AUTO 23011KT 10SM SCT017 OVC028 M02/M02 A2981 RMK AO2
K06D 170355Z AUTO 25010KT 10SM FEW008 SCT011 OVC017 M02/M02 A2982 RMK AO2
K06D 170335Z AUTO 22008KT 10SM BKN009 OVC017 M03/M03 A2982 RMK AO2
K06D 170315Z AUTO 23010KT 10SM OVC018 M03/M03 A2983 RMK AO2
K06D 170255Z AUTO 22012KT 10SM OVC018 M03/M03 A2983 RMK AO2
K06D 170235Z AUTO 22011KT 10SM OVC018 M03/M03 A2984 RMK AO2
K06D 170215Z AUTO 23012KT 10SM FEW009 FEW014 OVC020 M03/M03 A2985 RMK AO2
K06D 170155Z AUTO 23013KT 10SM SCT016 BKN021 OVC030 M03/M03 A2985 RMK AO2
K06D 170135Z AUTO 20007KT 10SM SCT017 BKN022 OVC029 M03/M03 A2986 RMK AO2
K06D 170115Z AUTO 22006KT 10SM OVC022 M03/M03 A2986 RMK AO2
K06D 170055Z AUTO 22005KT 10SM BKN024 OVC048 M04/M04 A2986 RMK AO2
K06D 170035Z AUTO 24003KT 10SM OVC024 M03/M04 A2987 RMK AO2
K06D 170015Z AUTO 00000KT 10SM OVC025 M03/M03 A2987 RMK AO2
K06D 162355Z AUTO 00000KT 10SM OVC024 M03/M03 A2989 RMK AO2
K06D 162335Z AUTO 00000KT 10SM OVC023 M03/M03 A2989 RMK AO2
K06D 162315Z AUTO 32005KT 10SM OVC022 M03/M04 A2989 RMK AO2
K06D 162255Z AUTO 30005KT 10SM OVC020 M03/M04 A2989 RMK AO2